Terminal Aerodrome Forecast
Issued by NWS

Home | Current Version | Previous Version | Text Only | Print | Product List | Glossary On
Versions: 1 2 3 4 5 6 7 8 9 10 11 12 13 14 15
000
FTUS44 KTSA 300528
TAFXNA
TAF
KXNA 300528Z 3006/0106 12005KT P6SM BKN015
     FM300800 12006KT 4SM BR OVC007
      TEMPO 3009/3013 1SM BR OVC003
     FM301600 25007KT P6SM BKN015
     FM301900 25007KT P6SM SCT025 BKN250
     FM010000 27003KT P6SM SKC=

USA.gov is the U.S. government's official web portal to all federal, state and local government web resources and services.